createdAt,value
2022-08-25T00:00:50.002Z,101201.19
2022-08-25T00:05:51.528Z,101175.81
2022-08-25T00:11:00.152Z,101213.91
2022-08-25T00:16:05.316Z,101201.16
2022-08-25T00:21:06.939Z,101177.56
2022-08-25T00:26:09.751Z,101206.16
2022-08-25T00:31:14.551Z,101203.06
2022-08-25T00:36:18.237Z,101207.44
2022-08-25T00:41:22.506Z,101208.41
2022-08-25T00:46:31.587Z,101206.94
2022-08-25T00:51:38.790Z,101208.75
2022-08-25T00:56:40.864Z,101213.31
2022-08-25T01:01:42.576Z,101219.28
2022-08-25T01:06:44.999Z,101206.63
2022-08-25T01:11:47.469Z,101208.00
2022-08-25T01:16:51.104Z,101199.94
2022-08-25T01:21:56.291Z,101203.09
2022-08-25T01:26:58.347Z,101212.16
2022-08-25T01:32:06.181Z,101215.09
2022-08-25T01:37:09.540Z,101201.84
2022-08-25T01:42:32.914Z,101218.50
2022-08-25T01:47:34.519Z,101221.91
2022-08-25T01:52:58.397Z,101229.84
2022-08-25T01:57:59.859Z,101232.06
2022-08-25T02:03:01.387Z,101223.63
2022-08-25T02:08:04.197Z,101230.47
2022-08-25T02:13:07.151Z,101222.38
2022-08-25T02:18:10.664Z,101215.16
2022-08-25T02:23:12.271Z,101220.09
2022-08-25T02:28:13.899Z,101220.31
2022-08-25T02:33:15.382Z,101232.34
2022-08-25T02:38:16.886Z,101219.50
2022-08-25T02:43:18.310Z,101231.69
2022-08-25T02:48:19.879Z,101218.53
2022-08-25T02:53:21.602Z,101218.03
2022-08-25T02:58:23.671Z,101217.06
2022-08-25T03:03:25.268Z,101213.31
2022-08-25T03:08:26.771Z,101210.81
2022-08-25T03:13:28.211Z,101197.38
2022-08-25T03:18:30.177Z,101198.09
2022-08-25T03:23:32.241Z,101182.19
2022-08-25T03:28:33.908Z,101175.78
2022-08-25T03:33:35.617Z,101187.03
2022-08-25T03:38:38.160Z,101172.81
2022-08-25T03:43:39.859Z,101183.81
2022-08-25T03:48:41.296Z,101173.50
2022-08-25T03:53:42.723Z,101179.66
2022-08-25T03:58:44.581Z,101176.69
2022-08-25T04:03:47.025Z,101168.13
2022-08-25T04:08:48.805Z,101170.50
2022-08-25T04:13:51.893Z,101154.97
2022-08-25T04:18:56.739Z,101157.84
2022-08-25T04:23:58.239Z,101150.91
2022-08-25T04:29:01.163Z,101150.06
2022-08-25T04:34:04.701Z,101151.78
2022-08-25T04:39:20.150Z,101140.06
2022-08-25T04:44:21.683Z,101145.50
2022-08-25T04:49:23.283Z,101145.19
2022-08-25T04:54:25.076Z,101167.06
2022-08-25T04:59:29.403Z,101158.84
2022-08-25T05:04:35.237Z,101160.50
2022-08-25T05:09:37.765Z,101154.41
2022-08-25T05:14:39.485Z,101150.84
2022-08-25T05:19:40.926Z,101156.78
2022-08-25T05:24:42.365Z,101153.22
2022-08-25T05:29:43.773Z,101153.13
2022-08-25T05:34:45.297Z,101152.31
2022-08-25T05:39:46.717Z,101151.00
2022-08-25T05:44:48.496Z,101136.13
2022-08-25T05:49:49.903Z,101145.13
2022-08-25T05:54:51.365Z,101144.16
2022-08-25T05:59:52.790Z,101137.97
2022-08-25T06:04:54.193Z,101141.84
2022-08-25T06:09:55.770Z,101136.41
2022-08-25T06:14:57.237Z,101142.97
2022-08-25T06:19:58.663Z,101133.03
2022-08-25T06:25:00.152Z,101125.06
2022-08-25T06:30:07.975Z,101144.53
2022-08-25T06:35:12.961Z,101131.75
2022-08-25T06:40:16.302Z,101160.78
2022-08-25T06:45:18.640Z,101160.63
2022-08-25T06:50:20.224Z,101163.91
2022-08-25T06:55:21.729Z,101154.84
2022-08-25T07:00:23.208Z,101165.72
2022-08-25T07:05:43.586Z,101165.94
2022-08-25T07:10:48.064Z,101164.25
2022-08-25T07:15:54.226Z,101167.91
2022-08-25T07:20:56.798Z,101170.94
2022-08-25T07:26:37.290Z,101174.06
2022-08-25T07:31:39.930Z,101165.25
2022-08-25T07:36:41.762Z,101141.63
2022-08-25T07:41:43.758Z,101158.34
2022-08-25T07:46:45.311Z,101150.47
2022-08-25T07:52:03.902Z,101139.31
2022-08-25T07:57:08.134Z,101142.97
2022-08-25T08:02:18.677Z,101142.72
2022-08-25T08:07:23.652Z,101153.00
2022-08-25T08:12:36.467Z,101157.56
2022-08-25T08:17:39.549Z,101146.28
2022-08-25T08:22:43.354Z,101142.38
2022-08-25T08:27:46.142Z,101131.16
2022-08-25T08:33:08.628Z,101139.16
2022-08-25T08:38:17.212Z,101110.44
2022-08-25T08:43:25.115Z,101098.69
2022-08-25T08:48:44.343Z,101123.03
2022-08-25T08:54:15.403Z,101126.88
2022-08-25T08:59:33.378Z,101110.03
2022-08-25T09:04:46.944Z,101109.25
2022-08-25T09:09:48.773Z,101096.06
2022-08-25T09:15:02.511Z,101079.88
2022-08-25T09:20:46.868Z,101086.22
2022-08-25T09:26:03.150Z,101082.94
2022-08-25T09:31:20.955Z,101076.66
2022-08-25T09:36:23.603Z,101076.97
2022-08-25T09:41:42.511Z,101076.41
2022-08-25T09:47:05.514Z,101062.25
2022-08-25T09:52:28.394Z,101044.63
2022-08-25T09:57:34.954Z,101037.59
2022-08-25T10:02:36.426Z,101037.59
2022-08-25T10:07:51.902Z,101040.56
2022-08-25T10:12:54.873Z,101032.59
2022-08-25T10:18:24.231Z,101032.38
2022-08-25T10:23:27.969Z,101020.00
2022-08-25T10:28:52.368Z,101023.44
2022-08-25T10:34:12.425Z,101016.06
2022-08-25T10:39:37.074Z,101018.38
2022-08-25T10:45:21.955Z,100999.00
2022-08-25T10:50:33.471Z,100997.06
2022-08-25T10:55:43.748Z,100983.88
2022-08-25T11:00:59.279Z,100980.19
2022-08-25T11:06:12.315Z,100980.91
2022-08-25T11:11:37.518Z,100972.38
2022-08-25T11:16:45.224Z,100967.97
2022-08-25T11:22:20.929Z,100971.94
2022-08-25T11:27:26.567Z,100967.63
2022-08-25T11:32:33.301Z,100955.59
2022-08-25T11:37:43.897Z,100953.72
2022-08-25T11:43:00.301Z,100953.84
2022-08-25T11:48:16.719Z,100939.22
2022-08-25T11:53:28.105Z,100935.69
2022-08-25T11:58:36.733Z,100934.38
2022-08-25T12:03:38.423Z,100933.66
2022-08-25T12:09:00.018Z,100921.41
2022-08-25T12:14:28.486Z,100915.00
2022-08-25T12:19:32.678Z,100914.78
2022-08-25T12:24:36.958Z,100907.84
2022-08-25T12:29:51.797Z,100901.44
2022-08-25T12:35:27.188Z,100897.31
2022-08-25T12:40:34.392Z,100886.50
2022-08-25T12:45:38.615Z,100893.44
2022-08-25T12:50:43.534Z,100874.63
2022-08-25T12:55:52.213Z,100877.78
2022-08-25T13:01:22.639Z,100872.09
2022-08-25T13:06:48.258Z,100854.50
2022-08-25T13:12:14.219Z,100876.06
2022-08-25T13:17:30.255Z,100868.41
2022-08-25T13:22:35.747Z,100859.25
2022-08-25T13:27:37.431Z,100826.38
2022-08-25T13:32:38.945Z,100842.97
2022-08-25T13:37:41.241Z,100844.53
2022-08-25T13:42:50.878Z,100838.25
2022-08-25T13:47:56.399Z,100820.50
2022-08-25T13:53:05.968Z,100828.81
2022-08-25T13:58:14.924Z,100834.50
2022-08-25T14:03:31.320Z,100826.59
2022-08-25T14:08:39.099Z,100818.09
2022-08-25T14:13:44.587Z,100802.75
2022-08-25T14:18:51.983Z,100808.22
2022-08-25T14:23:55.464Z,100812.00
2022-08-25T14:28:57.446Z,100796.13
2022-08-25T14:34:05.983Z,100791.69
2022-08-25T14:39:08.670Z,100768.91
2022-08-25T14:44:10.884Z,100800.72
2022-08-25T14:49:24.931Z,100791.84
2022-08-25T14:54:27.952Z,100791.41
2022-08-25T14:59:31.478Z,100792.31
2022-08-25T15:04:32.926Z,100770.25
2022-08-25T15:09:34.418Z,100768.53
2022-08-25T15:14:36.066Z,100762.16
2022-08-25T15:19:37.609Z,100766.78
2022-08-25T15:24:39.112Z,100763.88
2022-08-25T15:29:41.663Z,100752.84
2022-08-25T15:34:43.200Z,100746.97
2022-08-25T15:39:46.587Z,100740.84
2022-08-25T15:44:53.249Z,100750.97
2022-08-25T15:50:04.464Z,100756.25
2022-08-25T15:55:07.060Z,100757.16
2022-08-25T16:00:13.703Z,100749.69
2022-08-25T16:05:20.433Z,100739.84
2022-08-25T16:10:27.425Z,100739.50
2022-08-25T16:15:29.116Z,100737.31
2022-08-25T16:20:33.292Z,100743.78
2022-08-25T16:25:40.268Z,100739.22
2022-08-25T16:30:52.816Z,100745.00
2022-08-25T16:36:08.441Z,100740.28
2022-08-25T16:41:16.088Z,100737.63
2022-08-25T16:46:20.619Z,100727.63
2022-08-25T16:51:25.628Z,100731.97
2022-08-25T16:56:34.333Z,100735.75
2022-08-25T17:01:36.675Z,100739.22
2022-08-25T17:06:41.383Z,100733.88
2022-08-25T17:11:54.145Z,100738.25
2022-08-25T17:16:56.249Z,100743.22
2022-08-25T17:21:58.474Z,100723.28
2022-08-25T17:27:02.038Z,100749.38
2022-08-25T17:32:04.585Z,100703.81
2022-08-25T17:37:06.669Z,100710.81
2022-08-25T17:42:08.181Z,100734.44
2022-08-25T17:47:10.846Z,100733.00
2022-08-25T17:52:13.100Z,100712.03
2022-08-25T17:57:16.134Z,100736.84
2022-08-25T18:02:17.584Z,100748.25
2022-08-25T18:07:19.030Z,100746.53
2022-08-25T18:12:20.433Z,100754.34
2022-08-25T18:17:23.069Z,100750.88
2022-08-25T18:22:24.513Z,100760.72
2022-08-25T18:27:26.744Z,100758.66
2022-08-25T18:32:29.287Z,100747.41
2022-08-25T18:37:49.402Z,100728.91
2022-08-25T18:43:00.250Z,100766.94
2022-08-25T18:48:02.420Z,100747.00
2022-08-25T18:53:04.141Z,100768.44
2022-08-25T18:58:08.072Z,100761.06
2022-08-25T19:03:12.157Z,100763.81
2022-08-25T19:08:18.452Z,100770.50
2022-08-25T19:13:23.269Z,100774.72
2022-08-25T19:18:25.885Z,100780.03
2022-08-25T19:23:31.003Z,100780.75
2022-08-25T19:28:33.298Z,100777.22
2022-08-25T19:33:43.989Z,100770.88
2022-08-25T19:38:47.096Z,100769.16
2022-08-25T19:43:56.185Z,100771.56
2022-08-25T19:48:59.960Z,100775.41
2022-08-25T19:54:03.323Z,100767.13
2022-08-25T19:59:04.897Z,100764.03
2022-08-25T20:04:06.373Z,100760.34
2022-08-25T20:09:09.030Z,100764.22
2022-08-25T20:14:32.550Z,100757.47
2022-08-25T20:19:34.019Z,100757.81
2022-08-25T20:24:55.770Z,100749.63
2022-08-25T20:29:57.957Z,100760.28
2022-08-25T20:35:00.930Z,100765.09
2022-08-25T20:40:02.540Z,100770.84
2022-08-25T20:45:06.086Z,100777.53
2022-08-25T20:50:07.952Z,100770.88
2022-08-25T20:55:09.836Z,100780.47
2022-08-25T21:00:12.705Z,100781.97
2022-08-25T21:05:14.355Z,100779.91
2022-08-25T21:10:16.120Z,100768.03
2022-08-25T21:15:18.293Z,100786.69
2022-08-25T21:20:21.599Z,100749.75
2022-08-25T21:25:23.129Z,100781.38
2022-08-25T21:30:24.715Z,100791.22
2022-08-25T21:35:27.642Z,100788.69
2022-08-25T21:40:35.338Z,100789.13
2022-08-25T21:45:46.372Z,100789.22
2022-08-25T21:50:48.331Z,100783.03
2022-08-25T21:55:50.235Z,100778.09
2022-08-25T22:00:51.674Z,100787.50
2022-08-25T22:05:54.903Z,100781.63
2022-08-25T22:10:56.370Z,100783.94
2022-08-25T22:15:58.152Z,100776.09
2022-08-25T22:20:59.594Z,100769.66
2022-08-25T22:26:08.871Z,100775.53
2022-08-25T22:31:10.534Z,100786.78
2022-08-25T22:36:16.027Z,100787.59
2022-08-25T22:41:21.507Z,100781.53
2022-08-25T22:46:25.269Z,100786.69
2022-08-25T22:51:31.415Z,100793.69
2022-08-25T22:56:35.678Z,100786.06
2022-08-25T23:01:39.702Z,100791.88
2022-08-25T23:06:42.341Z,100793.69
2022-08-25T23:11:43.946Z,100797.09
2022-08-25T23:16:45.535Z,100797.38
2022-08-25T23:22:05.434Z,100804.03
2022-08-25T23:27:08.864Z,100799.78
2022-08-25T23:32:13.991Z,100811.88
2022-08-25T23:37:18.507Z,100816.25
2022-08-25T23:42:20.515Z,100806.53
2022-08-25T23:47:22.250Z,100779.78
2022-08-25T23:52:24.204Z,100809.19
2022-08-25T23:57:26.428Z,100796.09
